Time;durP1;ratioP1;P1;durP2;ratioP2;P2;SDS_P1;SDS_P2;PMS_P1;PMS_P2;Temp;Humidity;BMP_temperature;BMP_pressure;BME280_temperature;BME280_humidity;BME280_pressure;Samples;Min_cycle;Max_cycle;Signal;HPM_P1;HPM_P2
2022/12/11 00:01:49;;;;;;;49.03;23.60;;;;;;;;;;5006856;28;20025;-59
2022/12/11 00:04:14;;;;;;;54.38;24.75;;;;;;;;;;5020625;28;20036;-60
2022/12/11 00:06:41;;;;;;;53.88;26.00;;;;;;;;;;5036035;28;20040;-60
2022/12/11 00:09:06;;;;;;;55.03;25.90;;;;;;;;;;5024474;28;20519;-61
2022/12/11 00:11:31;;;;;;;52.05;25.17;;;;;;;;;;5037067;28;20166;-60
2022/12/11 00:13:57;;;;;;;42.97;21.88;;;;;;;;;;5037759;28;20121;-59
2022/12/11 00:16:22;;;;;;;52.08;23.80;;;;;;;;;;5036924;28;20052;-59
2022/12/11 00:18:47;;;;;;;52.15;23.33;;;;;;;;;;5036482;28;20355;-59
2022/12/11 00:21:13;;;;;;;46.45;24.30;;;;;;;;;;5036851;28;20032;-59
2022/12/11 00:23:38;;;;;;;53.58;26.45;;;;;;;;;;5035590;28;20033;-60
2022/12/11 00:26:08;;;;;;;51.72;24.73;;;;;;;;;;5035489;28;20579;-61
2022/12/11 00:28:33;;;;;;;52.90;24.88;;;;;;;;;;5038226;28;20037;-60
2022/12/11 00:31:01;;;;;;;50.95;24.65;;;;;;;;;;5023887;28;20025;-60
2022/12/11 00:33:27;;;;;;;54.97;24.80;;;;;;;;;;5037525;28;20060;-60
2022/12/11 00:35:52;;;;;;;49.05;24.85;;;;;;;;;;5025453;28;20068;-61
2022/12/11 00:38:19;;;;;;;49.33;25.48;;;;;;;;;;5033714;28;20281;-60
2022/12/11 00:40:45;;;;;;;52.42;24.05;;;;;;;;;;5036568;28;20040;-60
2022/12/11 00:43:11;;;;;;;46.15;22.83;;;;;;;;;;5036239;28;20032;-61
2022/12/11 00:45:36;;;;;;;48.75;22.85;;;;;;;;;;5036498;28;20368;-59
2022/12/11 00:48:02;;;;;;;44.72;22.38;;;;;;;;;;5035195;28;20347;-60
2022/12/11 00:50:27;;;;;;;49.38;23.42;;;;;;;;;;5039496;28;20104;-60
2022/12/11 00:52:53;;;;;;;43.83;22.13;;;;;;;;;;5038467;28;20212;-60
2022/12/11 00:55:18;;;;;;;45.03;22.70;;;;;;;;;;5034961;28;20121;-59
2022/12/11 00:57:43;;;;;;;42.60;21.55;;;;;;;;;;5034281;28;20347;-60
2022/12/11 01:00:09;;;;;;;47.85;23.20;;;;;;;;;;5035114;28;20517;-59
2022/12/11 01:02:35;;;;;;;39.38;21.25;;;;;;;;;;5032337;28;20434;-60
2022/12/11 01:05:00;;;;;;;46.35;22.50;;;;;;;;;;5033455;28;20096;-60
2022/12/11 01:07:25;;;;;;;44.05;21.20;;;;;;;;;;5035172;28;20044;-60
2022/12/11 01:12:35;;;;;;;45.10;21.05;;;;;;;;;;5033934;28;20033;-59
2022/12/11 01:15:00;;;;;;;43.28;20.23;;;;;;;;;;5034242;28;20482;-61
2022/12/11 01:17:26;;;;;;;41.10;21.73;;;;;;;;;;5033976;28;20055;-60
2022/12/11 01:19:54;;;;;;;50.63;22.38;;;;;;;;;;5034356;28;20036;-59
2022/12/11 01:22:19;;;;;;;41.45;21.02;;;;;;;;;;5024505;28;20033;-60
2022/12/11 01:24:44;;;;;;;41.65;21.27;;;;;;;;;;5035176;28;20487;-60
2022/12/11 01:27:10;;;;;;;49.50;22.05;;;;;;;;;;5033902;28;20079;-60
2022/12/11 01:29:35;;;;;;;45.10;22.80;;;;;;;;;;5033334;28;20036;-61
2022/12/11 01:32:00;;;;;;;46.80;23.05;;;;;;;;;;5036587;28;20140;-61
2022/12/11 01:34:28;;;;;;;45.08;22.10;;;;;;;;;;5023330;28;20499;-61
2022/12/11 01:36:53;;;;;;;42.25;21.70;;;;;;;;;;5033834;28;20384;-61
2022/12/11 01:39:18;;;;;;;38.13;20.67;;;;;;;;;;5034171;28;20036;-61
2022/12/11 01:41:44;;;;;;;35.95;19.52;;;;;;;;;;5034000;28;20029;-61
2022/12/11 01:44:15;;;;;;;35.47;18.40;;;;;;;;;;5033518;28;20099;-61
2022/12/11 01:46:41;;;;;;;28.60;15.52;;;;;;;;;;5031550;28;20032;-60
2022/12/11 01:49:10;;;;;;;29.60;16.10;;;;;;;;;;5033739;28;20045;-61
2022/12/11 01:51:38;;;;;;;21.55;11.68;;;;;;;;;;5024885;28;20033;-60
2022/12/11 01:54:05;;;;;;;23.02;11.75;;;;;;;;;;5015703;28;20033;-60
2022/12/11 01:56:33;;;;;;;25.65;13.40;;;;;;;;;;5036034;28;20109;-60
2022/12/11 01:58:59;;;;;;;22.92;12.90;;;;;;;;;;5020383;28;20079;-60
2022/12/11 02:01:28;;;;;;;25.65;13.15;;;;;;;;;;5017905;28;20035;-60
2022/12/11 02:03:54;;;;;;;26.45;13.60;;;;;;;;;;5034470;28;20026;-61
2022/12/11 02:06:29;;;;;;;23.15;11.65;;;;;;;;;;5035368;28;20043;-60
2022/12/11 02:08:54;;;;;;;23.10;10.80;;;;;;;;;;5034703;28;20116;-60
2022/12/11 02:11:22;;;;;;;20.45;11.25;;;;;;;;;;5035047;28;21510;-60
2022/12/11 02:13:59;;;;;;;19.33;10.68;;;;;;;;;;5034756;28;20033;-60
2022/12/11 02:16:24;;;;;;;19.38;11.35;;;;;;;;;;5033976;28;20483;-60
2022/12/11 02:18:55;;;;;;;16.05;9.82;;;;;;;;;;5034368;28;20045;-60
2022/12/11 02:21:39;;;;;;;23.23;11.73;;;;;;;;;;5032229;28;20160;-59
2022/12/11 02:24:08;;;;;;;19.10;11.23;;;;;;;;;;5033145;28;20501;-60
2022/12/11 02:26:51;;;;;;;20.10;10.95;;;;;;;;;;5036223;28;20102;-61
2022/12/11 02:29:18;;;;;;;19.17;11.13;;;;;;;;;;5038035;28;20037;-59
2022/12/11 02:31:45;;;;;;;20.42;11.85;;;;;;;;;;5036758;28;20032;-60
2022/12/11 02:34:18;;;;;;;19.90;11.23;;;;;;;;;;5021243;28;20044;-59
2022/12/11 02:36:45;;;;;;;21.15;12.02;;;;;;;;;;5022197;28;20035;-60
2022/12/11 02:39:13;;;;;;;22.92;12.52;;;;;;;;;;5036850;28;20041;-61
2022/12/11 02:41:41;;;;;;;21.30;11.93;;;;;;;;;;5037853;28;20037;-60
2022/12/11 02:44:09;;;;;;;23.15;11.50;;;;;;;;;;5029598;28;20055;-60
2022/12/11 02:46:35;;;;;;;21.48;11.63;;;;;;;;;;5036632;28;20033;-60
2022/12/11 02:49:02;;;;;;;21.75;10.82;;;;;;;;;;5022483;28;20044;-60
2022/12/11 02:51:29;;;;;;;22.35;10.70;;;;;;;;;;5038098;28;20079;-59
2022/12/11 02:53:56;;;;;;;23.17;12.65;;;;;;;;;;5022133;28;20044;-60
2022/12/11 02:56:31;;;;;;;21.10;11.48;;;;;;;;;;5038465;28;20131;-61
2022/12/11 02:58:59;;;;;;;22.30;11.48;;;;;;;;;;5039147;28;20068;-60
2022/12/11 03:01:25;;;;;;;21.27;10.95;;;;;;;;;;5036425;28;20033;-60
2022/12/11 03:03:51;;;;;;;21.83;10.93;;;;;;;;;;5038244;28;20372;-61
2022/12/11 03:06:19;;;;;;;18.45;11.30;;;;;;;;;;5036815;28;20117;-60
2022/12/11 03:08:44;;;;;;;20.65;11.40;;;;;;;;;;5020322;28;20470;-60
2022/12/11 03:11:10;;;;;;;20.30;11.48;;;;;;;;;;5038142;28;20079;-60
2022/12/11 03:13:37;;;;;;;20.90;12.07;;;;;;;;;;5038057;28;20462;-60
2022/12/11 03:16:10;;;;;;;20.77;12.23;;;;;;;;;;5025861;28;20104;-60
2022/12/11 03:18:39;;;;;;;22.38;12.82;;;;;;;;;;5017858;28;20037;-60
2022/12/11 03:21:08;;;;;;;21.92;13.15;;;;;;;;;;5038903;28;20460;-60
2022/12/11 03:23:38;;;;;;;24.48;13.45;;;;;;;;;;5037558;28;20030;-60
2022/12/11 03:26:05;;;;;;;19.75;12.68;;;;;;;;;;5037115;28;20059;-60
2022/12/11 03:28:48;;;;;;;24.30;13.60;;;;;;;;;;5022136;28;20071;-60
2022/12/11 03:31:26;;;;;;;25.40;13.88;;;;;;;;;;5036775;28;20595;-59
2022/12/11 03:33:53;;;;;;;28.88;14.88;;;;;;;;;;5026673;28;20986;-59
2022/12/11 03:36:24;;;;;;;26.20;15.25;;;;;;;;;;5020182;28;20027;-60
2022/12/11 03:38:52;;;;;;;25.92;14.40;;;;;;;;;;5035848;28;20048;-60
2022/12/11 03:41:19;;;;;;;26.95;14.32;;;;;;;;;;5037869;28;20562;-60
2022/12/11 03:43:44;;;;;;;23.95;13.90;;;;;;;;;;5037296;28;20041;-60
2022/12/11 03:46:12;;;;;;;24.73;13.70;;;;;;;;;;5037064;28;20403;-60
2022/12/11 03:48:37;;;;;;;;;;;;;;;;;;5039036;28;20401;-60
2022/12/11 03:51:04;;;;;;;23.15;12.65;;;;;;;;;;5036776;28;19912;-60
2022/12/11 03:53:30;;;;;;;26.00;14.55;;;;;;;;;;5036842;28;20033;-60
2022/12/11 03:55:57;;;;;;;25.13;14.40;;;;;;;;;;5036335;28;20864;-59
2022/12/11 03:58:22;;;;;;;31.55;14.43;;;;;;;;;;5038197;28;20052;-60
2022/12/11 04:00:47;;;;;;;25.70;14.35;;;;;;;;;;5036493;28;20033;-59
2022/12/11 04:03:13;;;;;;;28.60;15.82;;;;;;;;;;5026522;28;20029;-59
2022/12/11 04:05:39;;;;;;;31.10;16.90;;;;;;;;;;5036244;28;20461;-59
2022/12/11 04:08:05;;;;;;;30.88;16.92;;;;;;;;;;5037283;28;20032;-59
2022/12/11 04:10:30;;;;;;;33.70;16.23;;;;;;;;;;5037193;28;20498;-60
2022/12/11 04:12:55;;;;;;;31.08;16.55;;;;;;;;;;5026303;28;20028;-59
2022/12/11 04:15:21;;;;;;;28.80;16.48;;;;;;;;;;5020583;28;20032;-60
2022/12/11 04:26:19;;;;;;;33.60;18.50;;;;;;;;;;4981610;28;20405;-60
2022/12/11 04:28:45;;;;;;;33.85;18.08;;;;;;;;;;4966898;28;20026;-61
2022/12/11 04:31:12;;;;;;;33.95;18.52;;;;;;;;;;5006632;28;20565;-61
2022/12/11 04:33:37;;;;;;;36.38;19.17;;;;;;;;;;5018356;28;20116;-61
2022/12/11 04:36:02;;;;;;;35.33;18.02;;;;;;;;;;5033839;28;20083;-61
2022/12/11 04:38:28;;;;;;;34.97;18.65;;;;;;;;;;5023788;28;20118;-60
2022/12/11 04:41:00;;;;;;;37.60;19.10;;;;;;;;;;5037632;28;20104;-61
2022/12/11 04:43:26;;;;;;;32.95;18.77;;;;;;;;;;5034990;28;20061;-60
2022/12/11 04:45:59;;;;;;;34.22;19.00;;;;;;;;;;5034691;28;20067;-60
2022/12/11 04:48:24;;;;;;;35.75;19.02;;;;;;;;;;5035379;28;20037;-61
2022/12/11 04:50:50;;;;;;;34.35;18.67;;;;;;;;;;5037487;28;20029;-61
2022/12/11 04:53:15;;;;;;;38.70;19.48;;;;;;;;;;5035963;28;20057;-60
2022/12/11 04:55:40;;;;;;;36.38;19.63;;;;;;;;;;5037233;28;20068;-61
2022/12/11 04:58:06;;;;;;;37.03;20.23;;;;;;;;;;5035926;28;20037;-61
2022/12/11 05:00:31;;;;;;;43.00;22.15;;;;;;;;;;5022277;28;20147;-60
2022/12/11 05:02:56;;;;;;;39.95;20.75;;;;;;;;;;5036341;28;20079;-60
2022/12/11 05:05:21;;;;;;;36.38;20.10;;;;;;;;;;5018927;28;20107;-60
2022/12/11 05:07:47;;;;;;;44.25;21.75;;;;;;;;;;5035898;28;20106;-60
2022/12/11 05:10:12;;;;;;;45.83;21.13;;;;;;;;;;5022419;28;20033;-61
2022/12/11 05:12:37;;;;;;;44.20;20.80;;;;;;;;;;5035786;28;20030;-60
2022/12/11 05:15:03;;;;;;;45.28;22.95;;;;;;;;;;5034854;28;20560;-61
2022/12/11 05:17:28;;;;;;;41.13;21.02;;;;;;;;;;5034988;28;20029;-61
2022/12/11 05:19:53;;;;;;;40.45;21.77;;;;;;;;;;5036732;28;20033;-59
2022/12/11 05:22:19;;;;;;;44.78;22.55;;;;;;;;;;5034092;28;20624;-60
2022/12/11 05:24:44;;;;;;;41.28;21.52;;;;;;;;;;5036724;28;20052;-61
2022/12/11 05:27:10;;;;;;;44.97;22.95;;;;;;;;;;5034691;28;20120;-61
2022/12/11 05:29:35;;;;;;;44.88;23.63;;;;;;;;;;5033422;28;20065;-61
2022/12/11 05:32:00;;;;;;;41.20;21.70;;;;;;;;;;5037155;28;20040;-60
2022/12/11 05:34:26;;;;;;;46.83;22.95;;;;;;;;;;5033631;28;20468;-60
2022/12/11 05:36:51;;;;;;;41.55;21.27;;;;;;;;;;5035743;28;20111;-60
2022/12/11 05:39:16;;;;;;;46.95;21.92;;;;;;;;;;5023650;28;20048;-61
2022/12/11 05:41:42;;;;;;;47.75;22.23;;;;;;;;;;5025515;28;20077;-60
2022/12/11 05:44:10;;;;;;;44.95;22.88;;;;;;;;;;5033929;28;20541;-60
2022/12/11 05:46:35;;;;;;;45.25;22.55;;;;;;;;;;5036788;28;20048;-61
2022/12/11 05:49:00;;;;;;;44.00;22.73;;;;;;;;;;5005083;28;20033;-59
2022/12/11 05:51:26;;;;;;;50.50;23.25;;;;;;;;;;5036465;28;20471;-60
2022/12/11 05:53:52;;;;;;;52.20;22.98;;;;;;;;;;5018733;28;20621;-60
2022/12/11 05:56:19;;;;;;;49.78;24.88;;;;;;;;;;5037283;28;20494;-60
2022/12/11 05:58:45;;;;;;;48.23;24.03;;;;;;;;;;5036568;28;20033;-60
2022/12/11 06:01:16;;;;;;;46.38;22.98;;;;;;;;;;5017009;28;20282;-60
2022/12/11 06:03:41;;;;;;;49.70;22.60;;;;;;;;;;5034448;28;20805;-60
2022/12/11 06:06:07;;;;;;;53.45;24.17;;;;;;;;;;5035034;28;20036;-60
2022/12/11 06:08:32;;;;;;;51.35;22.83;;;;;;;;;;5035174;28;20041;-60
2022/12/11 06:10:58;;;;;;;52.05;24.23;;;;;;;;;;5033813;28;20033;-61
2022/12/11 06:13:24;;;;;;;57.70;24.45;;;;;;;;;;5033915;28;20427;-59
2022/12/11 06:15:49;;;;;;;51.05;24.25;;;;;;;;;;5034653;28;20035;-60
2022/12/11 06:18:14;;;;;;;56.40;25.58;;;;;;;;;;5018679;28;20489;-60
2022/12/11 06:20:40;;;;;;;50.80;25.05;;;;;;;;;;5032865;28;20040;-59
2022/12/11 06:23:05;;;;;;;50.72;24.52;;;;;;;;;;5035482;28;20061;-60
2022/12/11 06:25:30;;;;;;;50.67;24.30;;;;;;;;;;5033018;28;20037;-60
2022/12/11 06:27:56;;;;;;;49.63;23.20;;;;;;;;;;5034595;28;20116;-59
2022/12/11 06:30:21;;;;;;;49.35;24.10;;;;;;;;;;5035003;28;20052;-60
2022/12/11 06:32:47;;;;;;;49.65;25.08;;;;;;;;;;5034174;28;20148;-61
2022/12/11 06:35:12;;;;;;;51.38;23.73;;;;;;;;;;5034833;28;20072;-60
2022/12/11 06:37:39;;;;;;;47.03;22.90;;;;;;;;;;5019628;28;20059;-61
2022/12/11 06:40:05;;;;;;;52.35;25.63;;;;;;;;;;5036036;28;20361;-61
2022/12/11 06:42:30;;;;;;;46.58;22.63;;;;;;;;;;5022969;28;20577;-59
2022/12/11 06:44:58;;;;;;;46.10;23.08;;;;;;;;;;5033773;28;20523;-60
2022/12/11 06:47:27;;;;;;;47.35;21.20;;;;;;;;;;5033680;28;20037;-60
2022/12/11 06:49:53;;;;;;;48.78;22.45;;;;;;;;;;5036231;28;20039;-60
2022/12/11 06:52:18;;;;;;;49.47;22.88;;;;;;;;;;5036957;28;20033;-61
2022/12/11 06:54:44;;;;;;;52.70;24.65;;;;;;;;;;5032670;28;20048;-60
2022/12/11 06:57:09;;;;;;;52.00;22.35;;;;;;;;;;5034394;28;20074;-60
2022/12/11 06:59:35;;;;;;;39.17;18.38;;;;;;;;;;5032277;28;20084;-60
2022/12/11 07:02:00;;;;;;;38.25;18.75;;;;;;;;;;5035595;28;20022;-60
2022/12/11 07:04:26;;;;;;;40.25;17.88;;;;;;;;;;5032292;28;20162;-61
2022/12/11 07:06:52;;;;;;;31.45;15.32;;;;;;;;;;5033733;28;20065;-60
2022/12/11 07:09:17;;;;;;;38.33;17.40;;;;;;;;;;5034012;28;20099;-59
2022/12/11 07:11:42;;;;;;;39.10;18.60;;;;;;;;;;5036340;28;20079;-59
2022/12/11 07:14:08;;;;;;;33.85;17.08;;;;;;;;;;5037943;28;20146;-60
2022/12/11 07:16:33;;;;;;;38.03;17.88;;;;;;;;;;5037577;28;20441;-60
2022/12/11 07:18:59;;;;;;;42.65;19.73;;;;;;;;;;5019862;28;20130;-60
2022/12/11 07:21:24;;;;;;;45.40;21.33;;;;;;;;;;5021118;28;20020;-59
2022/12/11 07:23:50;;;;;;;55.42;23.30;;;;;;;;;;5039391;28;20032;-60
2022/12/11 07:26:17;;;;;;;43.40;20.63;;;;;;;;;;5038744;28;20024;-60
2022/12/11 07:28:42;;;;;;;45.83;21.98;;;;;;;;;;5033112;28;20591;-60
2022/12/11 07:31:08;;;;;;;53.45;25.23;;;;;;;;;;5036823;28;20078;-61
2022/12/11 07:33:34;;;;;;;44.83;22.77;;;;;;;;;;5035826;28;20091;-60
2022/12/11 07:36:02;;;;;;;47.63;23.33;;;;;;;;;;5038036;28;20041;-60
2022/12/11 07:38:27;;;;;;;51.90;24.08;;;;;;;;;;5037811;28;20033;-61
2022/12/11 07:40:52;;;;;;;48.78;24.15;;;;;;;;;;5038531;28;20056;-60
2022/12/11 07:43:18;;;;;;;56.42;25.52;;;;;;;;;;5036899;28;20029;-60
2022/12/11 07:45:43;;;;;;;50.00;24.40;;;;;;;;;;5020631;28;20457;-61
2022/12/11 07:48:08;;;;;;;59.75;26.42;;;;;;;;;;5037930;28;20041;-60
2022/12/11 07:50:34;;;;;;;54.58;26.38;;;;;;;;;;5022606;28;20033;-60
2022/12/11 07:52:59;;;;;;;53.40;24.77;;;;;;;;;;5036996;28;20510;-59
2022/12/11 07:55:24;;;;;;;49.15;24.10;;;;;;;;;;5039763;28;20053;-60
2022/12/11 07:57:49;;;;;;;50.42;24.65;;;;;;;;;;5023700;28;20046;-60
2022/12/11 08:00:15;;;;;;;50.95;25.95;;;;;;;;;;5027210;28;20505;-60
2022/12/11 08:02:41;;;;;;;52.65;24.48;;;;;;;;;;5021172;28;20026;-60
2022/12/11 08:05:06;;;;;;;52.70;25.85;;;;;;;;;;5021055;28;20395;-60
2022/12/11 08:07:35;;;;;;;50.65;24.38;;;;;;;;;;5038033;28;20029;-59
2022/12/11 08:10:00;;;;;;;55.35;25.88;;;;;;;;;;5041081;28;20060;-60
2022/12/11 08:12:25;;;;;;;53.38;26.33;;;;;;;;;;5038376;28;20025;-60
2022/12/11 08:14:51;;;;;;;51.10;25.35;;;;;;;;;;5033963;28;20025;-59
2022/12/11 08:17:16;;;;;;;53.90;25.73;;;;;;;;;;5026737;28;20098;-60
2022/12/11 08:19:41;;;;;;;54.95;25.88;;;;;;;;;;5019262;28;20399;-60
2022/12/11 08:22:06;;;;;;;51.50;25.00;;;;;;;;;;5020086;28;20030;-61
2022/12/11 08:24:32;;;;;;;51.47;23.83;;;;;;;;;;5040054;28;20036;-61
2022/12/11 08:26:57;;;;;;;53.75;25.20;;;;;;;;;;5023920;28;20091;-60
2022/12/11 08:29:23;;;;;;;52.90;23.67;;;;;;;;;;5036986;28;20033;-60
2022/12/11 08:31:48;;;;;;;48.03;22.00;;;;;;;;;;5038566;28;20033;-60
2022/12/11 08:34:14;;;;;;;48.67;22.80;;;;;;;;;;5019698;28;20577;-60
2022/12/11 08:36:40;;;;;;;52.88;23.20;;;;;;;;;;5034090;28;20048;-61
2022/12/11 08:39:05;;;;;;;52.53;23.88;;;;;;;;;;5034458;28;20021;-60
2022/12/11 08:41:31;;;;;;;55.58;23.98;;;;;;;;;;5033919;28;20046;-60
2022/12/11 08:43:57;;;;;;;49.15;22.80;;;;;;;;;;5035482;28;20028;-60
2022/12/11 08:46:23;;;;;;;53.72;23.23;;;;;;;;;;5032395;28;20033;-60
2022/12/11 08:48:49;;;;;;;48.08;23.10;;;;;;;;;;5034466;28;20040;-60
2022/12/11 08:51:15;;;;;;;53.17;22.45;;;;;;;;;;5033460;28;20025;-59
2022/12/11 08:53:41;;;;;;;47.83;21.65;;;;;;;;;;5035914;28;20024;-59
2022/12/11 08:56:08;;;;;;;47.58;22.83;;;;;;;;;;5024482;28;20045;-59
2022/12/11 08:58:33;;;;;;;48.58;21.35;;;;;;;;;;5036592;28;20041;-59
2022/12/11 09:00:59;;;;;;;52.15;22.63;;;;;;;;;;5037125;28;20031;-60
2022/12/11 09:03:24;;;;;;;48.30;22.67;;;;;;;;;;5040462;28;20530;-58
2022/12/11 09:05:50;;;;;;;44.38;22.55;;;;;;;;;;5036627;28;20033;-59
2022/12/11 09:08:15;;;;;;;46.75;22.10;;;;;;;;;;5033835;28;20044;-58
2022/12/11 09:10:40;;;;;;;44.38;22.40;;;;;;;;;;5019235;28;20466;-59
2022/12/11 09:13:06;;;;;;;49.67;24.23;;;;;;;;;;5022824;28;20681;-58
2022/12/11 09:15:31;;;;;;;47.78;22.83;;;;;;;;;;5035885;28;20040;-58
2022/12/11 09:17:56;;;;;;;45.00;22.95;;;;;;;;;;5035885;28;20035;-58
2022/12/11 09:20:22;;;;;;;46.45;22.92;;;;;;;;;;5033516;28;20078;-59
2022/12/11 09:22:47;;;;;;;46.22;23.30;;;;;;;;;;5032593;28;20029;-58
2022/12/11 09:25:12;;;;;;;51.83;24.42;;;;;;;;;;5022676;28;20033;-58
2022/12/11 09:27:38;;;;;;;49.15;24.70;;;;;;;;;;5036740;28;20451;-59
2022/12/11 09:30:03;;;;;;;46.35;24.65;;;;;;;;;;5034104;28;20550;-59
2022/12/11 09:32:29;;;;;;;57.20;26.35;;;;;;;;;;5032666;28;20714;-59
2022/12/11 09:34:54;;;;;;;53.70;25.52;;;;;;;;;;5034967;28;20063;-59
2022/12/11 09:37:20;;;;;;;46.92;23.33;;;;;;;;;;5033938;28;20467;-59
2022/12/11 09:39:45;;;;;;;43.53;22.38;;;;;;;;;;5019966;28;20078;-60
2022/12/11 09:42:24;;;;;;;48.70;22.98;;;;;;;;;;5021082;28;20669;-59
2022/12/11 09:44:52;;;;;;;46.10;21.98;;;;;;;;;;5037017;28;20132;-59
2022/12/11 09:47:17;;;;;;;39.50;19.35;;;;;;;;;;5034484;28;20033;-59
2022/12/11 09:49:43;;;;;;;41.28;19.83;;;;;;;;;;5035066;28;20083;-59
2022/12/11 09:52:27;;;;;;;42.17;20.23;;;;;;;;;;5033138;28;20398;-59
2022/12/11 09:55:00;;;;;;;40.42;19.42;;;;;;;;;;5034784;28;20033;-60
2022/12/11 09:57:38;;;;;;;47.05;22.90;;;;;;;;;;5037524;28;20478;-60
2022/12/11 10:00:04;;;;;;;;;;;;;;;;;;5034994;28;20498;-59
2022/12/11 10:02:35;;;;;;;38.15;19.02;;;;;;;;;;5035751;28;20055;-60
2022/12/11 10:05:13;;;;;;;43.28;20.95;;;;;;;;;;5035585;28;20112;-60
2022/12/11 10:07:53;;;;;;;42.55;21.70;;;;;;;;;;5036131;28;20037;-60
2022/12/11 10:10:24;;;;;;;48.65;23.23;;;;;;;;;;5034121;28;20033;-60
2022/12/11 10:12:55;;;;;;;48.60;23.70;;;;;;;;;;5031964;28;20076;-60
2022/12/11 10:15:42;;;;;;;48.47;24.85;;;;;;;;;;5029749;28;20044;-60
2022/12/11 10:18:12;;;;;;;45.65;22.10;;;;;;;;;;5029530;28;20045;-60
2022/12/11 10:20:39;;;;;;;55.13;22.83;;;;;;;;;;5033509;28;20531;-60
2022/12/11 10:23:09;;;;;;;54.88;23.23;;;;;;;;;;5034158;28;20858;-60
2022/12/11 10:25:35;;;;;;;49.50;23.52;;;;;;;;;;5033871;28;20063;-59
2022/12/11 10:28:13;;;;;;;44.50;18.98;;;;;;;;;;5027736;28;20036;-59
2022/12/11 10:30:43;;;;;;;47.78;22.13;;;;;;;;;;5018167;28;20063;-59
2022/12/11 10:33:11;;;;;;;51.67;22.92;;;;;;;;;;5033214;28;20032;-59
2022/12/11 10:35:46;;;;;;;56.08;23.08;;;;;;;;;;5030591;28;20048;-60
2022/12/11 10:38:26;;;;;;;50.58;20.58;;;;;;;;;;5015016;28;20124;-60
2022/12/11 10:40:56;;;;;;;52.42;22.73;;;;;;;;;;5018567;28;20458;-60
2022/12/11 10:43:35;;;;;;;50.13;21.60;;;;;;;;;;5029940;28;20028;-60
2022/12/11 10:46:00;;;;;;;44.22;20.63;;;;;;;;;;5033290;28;20035;-60
2022/12/11 10:48:26;;;;;;;50.25;22.50;;;;;;;;;;5036086;28;20029;-60
2022/12/11 10:50:56;;;;;;;48.30;21.73;;;;;;;;;;5015934;28;20029;-60
2022/12/11 10:53:22;;;;;;;50.08;22.40;;;;;;;;;;5034555;28;20045;-60
2022/12/11 10:55:48;;;;;;;51.97;23.13;;;;;;;;;;5036750;28;20561;-60
2022/12/11 10:58:21;;;;;;;50.58;22.83;;;;;;;;;;5015489;28;20112;-60
2022/12/11 11:00:56;;;;;;;49.55;22.27;;;;;;;;;;5020551;28;20542;-60
2022/12/11 11:03:22;;;;;;;48.88;20.98;;;;;;;;;;5020264;28;20033;-59
2022/12/11 11:05:49;;;;;;;43.78;21.30;;;;;;;;;;5016511;28;20710;-59
2022/12/11 11:08:23;;;;;;;45.55;20.75;;;;;;;;;;5035600;28;20029;-59
2022/12/11 11:10:56;;;;;;;46.72;21.00;;;;;;;;;;5018379;28;20033;-60
2022/12/11 11:13:22;;;;;;;52.80;21.17;;;;;;;;;;5035626;28;20504;-60
2022/12/11 11:15:48;;;;;;;50.58;22.33;;;;;;;;;;5016910;28;20041;-61
2022/12/11 11:18:25;;;;;;;51.60;24.67;;;;;;;;;;5001998;28;20102;-60
2022/12/11 11:20:51;;;;;;;47.85;22.30;;;;;;;;;;5022655;28;20040;-60
2022/12/11 11:23:17;;;;;;;49.83;23.52;;;;;;;;;;5029253;28;20031;-58
2022/12/11 11:25:56;;;;;;;48.00;22.23;;;;;;;;;;5024893;28;20037;-58
2022/12/11 11:28:24;;;;;;;43.40;21.77;;;;;;;;;;5031774;28;21074;-59
2022/12/11 11:31:12;;;;;;;52.10;22.58;;;;;;;;;;5027682;28;20028;-60
2022/12/11 11:33:45;;;;;;;51.38;22.15;;;;;;;;;;5017418;28;20673;-59
2022/12/11 11:36:20;;;;;;;48.53;21.73;;;;;;;;;;5012136;28;20040;-60
2022/12/11 11:38:49;;;;;;;44.05;20.70;;;;;;;;;;5033197;28;20052;-59
2022/12/11 11:41:20;;;;;;;46.05;20.65;;;;;;;;;;5017285;28;20059;-60
2022/12/11 11:43:47;;;;;;;45.38;20.83;;;;;;;;;;5028092;28;20033;-60
2022/12/11 11:46:18;;;;;;;48.65;21.13;;;;;;;;;;5030621;28;20040;-59
2022/12/11 11:48:49;;;;;;;47.85;21.15;;;;;;;;;;5022081;28;20354;-60
2022/12/11 11:51:18;;;;;;;46.25;21.88;;;;;;;;;;5031688;28;20025;-61
2022/12/11 11:53:46;;;;;;;45.08;21.60;;;;;;;;;;5020506;28;20036;-61
2022/12/11 11:56:17;;;;;;;49.90;21.92;;;;;;;;;;5032323;28;20040;-60
2022/12/11 11:58:45;;;;;;;59.25;22.83;;;;;;;;;;5027698;28;20120;-60
2022/12/11 12:01:16;;;;;;;53.97;23.23;;;;;;;;;;5033492;28;20029;-60
2022/12/11 12:03:41;;;;;;;47.78;19.80;;;;;;;;;;5024521;28;20025;-59
2022/12/11 12:06:11;;;;;;;55.88;22.55;;;;;;;;;;5017248;28;20546;-59
2022/12/11 12:08:55;;;;;;;47.70;21.75;;;;;;;;;;5032473;28;20414;-59
2022/12/11 12:11:24;;;;;;;44.92;20.75;;;;;;;;;;5018337;28;20059;-59
2022/12/11 12:14:05;;;;;;;44.22;21.35;;;;;;;;;;5034291;28;20036;-60
2022/12/11 12:16:44;;;;;;;46.13;20.98;;;;;;;;;;5015702;28;20497;-60
2022/12/11 12:19:19;;;;;;;48.35;22.48;;;;;;;;;;5028762;28;20330;-61
2022/12/11 12:21:47;;;;;;;51.85;22.75;;;;;;;;;;5025649;28;20041;-59
2022/12/11 12:24:12;;;;;;;54.35;23.98;;;;;;;;;;5015610;28;20052;-60
2022/12/11 12:26:40;;;;;;;45.88;20.45;;;;;;;;;;5028711;28;20037;-59
2022/12/11 12:29:26;;;;;;;49.70;22.67;;;;;;;;;;5034836;28;20490;-60
2022/12/11 12:32:01;;;;;;;43.00;20.02;;;;;;;;;;5001893;28;20037;-61
2022/12/11 12:34:26;;;;;;;47.08;21.75;;;;;;;;;;5027213;28;20546;-61
2022/12/11 12:36:54;;;;;;;55.08;23.27;;;;;;;;;;5031101;28;20139;-60
2022/12/11 12:39:29;;;;;;;48.35;21.92;;;;;;;;;;4986278;28;20315;-59
2022/12/11 12:42:06;;;;;;;52.40;22.67;;;;;;;;;;4994837;28;20041;-60
2022/12/11 12:44:37;;;;;;;51.42;22.63;;;;;;;;;;4987186;28;20026;-58
2022/12/11 12:47:07;;;;;;;41.97;20.70;;;;;;;;;;4987431;28;20033;-60
2022/12/11 12:49:40;;;;;;;45.00;20.50;;;;;;;;;;4994267;28;20124;-60
2022/12/11 12:52:10;;;;;;;46.50;21.23;;;;;;;;;;4986303;28;20019;-58
2022/12/11 12:54:37;;;;;;;48.33;21.80;;;;;;;;;;4987593;28;20447;-61
2022/12/11 12:57:03;;;;;;;48.80;21.37;;;;;;;;;;4995323;28;20037;-60
2022/12/11 12:59:28;;;;;;;49.50;23.60;;;;;;;;;;4992733;28;20038;-58
2022/12/11 13:02:03;;;;;;;47.00;20.17;;;;;;;;;;4996137;28;20038;-58
2022/12/11 13:04:42;;;;;;;43.15;18.75;;;;;;;;;;4988057;28;20077;-59
2022/12/11 13:07:16;;;;;;;44.33;19.92;;;;;;;;;;4996174;28;20654;-60
2022/12/11 13:09:42;;;;;;;41.70;19.10;;;;;;;;;;4995268;28;20030;-61
2022/12/11 13:12:12;;;;;;;41.40;18.17;;;;;;;;;;4992670;28;20052;-59
2022/12/11 13:14:37;;;;;;;38.88;18.15;;;;;;;;;;4989682;28;20034;-59
2022/12/11 13:17:21;;;;;;;37.13;17.92;;;;;;;;;;4999509;28;20071;-59
2022/12/11 13:19:47;;;;;;;41.13;18.67;;;;;;;;;;4991828;28;20057;-59
2022/12/11 13:22:13;;;;;;;38.70;18.20;;;;;;;;;;4995191;28;20026;-59
2022/12/11 13:24:46;;;;;;;40.95;18.83;;;;;;;;;;4995451;28;20052;-60
2022/12/11 13:27:30;;;;;;;39.88;19.45;;;;;;;;;;4999666;28;20606;-58
2022/12/11 13:30:24;;;;;;;44.30;17.53;;;;;;;;;;5006456;28;20037;-58
2022/12/11 13:32:58;;;;;;;43.42;18.42;;;;;;;;;;4983333;28;20049;-61
2022/12/11 13:35:24;;;;;;;36.28;17.73;;;;;;;;;;4974011;28;20050;-60
2022/12/11 13:37:50;;;;;;;41.80;18.38;;;;;;;;;;4995441;28;20105;-63
2022/12/11 13:40:20;;;;;;;37.72;17.02;;;;;;;;;;4996903;28;20112;-59
2022/12/11 13:42:51;;;;;;;43.00;18.10;;;;;;;;;;4990517;28;20049;-59
2022/12/11 13:45:21;;;;;;;45.22;19.17;;;;;;;;;;4985462;28;20034;-61
2022/12/11 13:47:48;;;;;;;40.08;18.67;;;;;;;;;;4973837;28;20165;-60
2022/12/11 13:50:21;;;;;;;45.47;19.25;;;;;;;;;;4996151;28;20564;-59
2022/12/11 13:52:57;;;;;;;39.28;19.45;;;;;;;;;;4988288;28;20480;-60
2022/12/11 13:55:30;;;;;;;40.38;19.48;;;;;;;;;;4988492;28;20017;-60
2022/12/11 13:57:56;;;;;;;46.38;21.42;;;;;;;;;;4995433;28;20049;-60
2022/12/11 14:00:23;;;;;;;38.03;18.60;;;;;;;;;;4984965;28;20409;-59
2022/12/11 14:02:50;;;;;;;42.75;20.27;;;;;;;;;;4995983;28;20030;-61
2022/12/11 14:05:16;;;;;;;40.90;17.42;;;;;;;;;;4989233;28;20528;-59
2022/12/11 14:07:45;;;;;;;41.30;18.35;;;;;;;;;;5003678;28;20077;-60
2022/12/11 14:10:16;;;;;;;43.22;17.42;;;;;;;;;;4999068;28;20481;-60
2022/12/11 14:13:00;;;;;;;36.25;16.83;;;;;;;;;;4989043;28;20488;-59
2022/12/11 14:15:26;;;;;;;36.05;17.23;;;;;;;;;;4985849;28;20715;-60
2022/12/11 14:17:53;;;;;;;35.08;15.25;;;;;;;;;;4991998;28;20026;-60
2022/12/11 14:20:20;;;;;;;36.63;15.40;;;;;;;;;;4998070;28;20036;-59
2022/12/11 14:22:46;;;;;;;28.92;14.13;;;;;;;;;;5003114;28;20510;-59
2022/12/11 14:25:25;;;;;;;31.13;14.45;;;;;;;;;;4995639;28;20056;-60
2022/12/11 14:27:52;;;;;;;33.83;15.18;;;;;;;;;;4990973;28;20781;-60
2022/12/11 14:30:24;;;;;;;32.42;13.85;;;;;;;;;;5001651;28;20157;-59
2022/12/11 14:32:51;;;;;;;30.60;14.57;;;;;;;;;;4992856;28;20030;-58
2022/12/11 14:35:24;;;;;;;32.73;15.90;;;;;;;;;;4993662;28;20025;-59